createdAt,value
2023-03-10T00:01:16.664Z,13.90
2023-03-10T00:03:43.956Z,13.87
2023-03-10T00:06:14.371Z,13.81
2023-03-10T00:08:41.380Z,13.77
2023-03-10T00:11:08.401Z,13.74
2023-03-10T00:13:35.367Z,13.68
2023-03-10T00:16:02.344Z,13.62
2023-03-10T00:18:29.181Z,13.58
2023-03-10T00:20:56.029Z,13.53
2023-03-10T00:23:23.423Z,13.49
2023-03-10T00:25:58.701Z,13.42
2023-03-10T00:28:26.886Z,13.42
2023-03-10T00:31:06.260Z,13.38
2023-03-10T00:33:34.929Z,13.39
2023-03-10T00:36:09.316Z,13.37
2023-03-10T00:38:37.100Z,13.37
2023-03-10T00:41:08.633Z,13.36
2023-03-10T00:43:36.443Z,13.39
2023-03-10T00:46:04.167Z,13.42
2023-03-10T00:48:31.645Z,13.44
2023-03-10T00:50:59.173Z,13.47
2023-03-10T00:53:26.729Z,13.49
2023-03-10T00:56:23.070Z,13.45
2023-03-10T00:58:58.638Z,13.49
2023-03-10T01:01:37.596Z,13.47
2023-03-10T01:04:08.474Z,13.47
2023-03-10T01:06:36.581Z,13.48
2023-03-10T01:09:04.493Z,13.46
2023-03-10T01:11:32.361Z,13.45
2023-03-10T01:14:03.090Z,13.42
2023-03-10T01:16:30.167Z,13.42
2023-03-10T01:18:58.329Z,13.39
2023-03-10T01:21:30.820Z,13.36
2023-03-10T01:23:57.976Z,13.36
2023-03-10T01:26:24.810Z,13.34
2023-03-10T01:28:51.712Z,13.33
2023-03-10T01:31:19.150Z,13.31
2023-03-10T01:33:46.872Z,13.29
2023-03-10T01:36:17.831Z,13.27
2023-03-10T01:38:47.322Z,13.26
2023-03-10T01:41:15.804Z,13.26
2023-03-10T01:43:46.135Z,13.25
2023-03-10T01:46:31.870Z,13.21
2023-03-10T01:49:38.672Z,13.18
2023-03-10T01:52:21.073Z,13.16
2023-03-10T01:54:56.113Z,13.17
2023-03-10T01:57:27.651Z,13.17
2023-03-10T01:59:55.625Z,13.18
2023-03-10T02:02:24.696Z,13.17
2023-03-10T02:04:53.074Z,13.16
2023-03-10T02:07:27.852Z,13.15
2023-03-10T02:09:55.999Z,13.17
2023-03-10T02:12:22.821Z,13.20
2023-03-10T02:14:51.625Z,13.21
2023-03-10T02:17:22.102Z,13.21
2023-03-10T02:20:13.335Z,13.23
2023-03-10T02:22:40.479Z,13.25
2023-03-10T02:25:22.852Z,13.23
2023-03-10T02:27:50.388Z,13.28
2023-03-10T02:30:25.045Z,13.25
2023-03-10T02:32:57.639Z,13.25
2023-03-10T02:35:24.854Z,13.27
2023-03-10T02:37:59.468Z,13.25
2023-03-10T02:40:40.413Z,13.19
2023-03-10T02:43:18.282Z,13.17
2023-03-10T02:45:49.117Z,13.14
2023-03-10T02:48:28.422Z,13.09
2023-03-10T02:50:57.836Z,13.09
2023-03-10T02:53:29.607Z,13.07
2023-03-10T02:55:58.224Z,13.07
2023-03-10T02:58:28.031Z,13.04
2023-03-10T03:00:56.041Z,13.04
2023-03-10T03:03:23.595Z,13.01
2023-03-10T03:05:51.401Z,12.99
2023-03-10T03:08:20.096Z,12.99
2023-03-10T03:10:48.624Z,13.02
2023-03-10T03:13:15.633Z,13.05
2023-03-10T03:15:42.988Z,13.08
2023-03-10T03:18:10.343Z,13.10
2023-03-10T03:20:40.579Z,13.10
2023-03-10T03:23:08.297Z,13.12
2023-03-10T03:25:38.487Z,13.12
2023-03-10T03:28:08.202Z,13.12
2023-03-10T03:30:36.860Z,13.14
2023-03-10T03:33:06.318Z,13.13
2023-03-10T03:35:36.577Z,13.13
2023-03-10T03:38:05.455Z,13.14
2023-03-10T03:40:34.788Z,13.14
2023-03-10T03:43:04.658Z,13.15
2023-03-10T03:45:33.199Z,13.16
2023-03-10T03:48:01.234Z,13.17
2023-03-10T03:50:31.258Z,13.10
2023-03-10T03:53:04.231Z,13.18
2023-03-10T03:55:31.474Z,13.17
2023-03-10T03:57:59.067Z,13.17
2023-03-10T04:00:26.209Z,13.18
2023-03-10T04:03:05.142Z,13.21
2023-03-10T04:05:33.169Z,13.21
2023-03-10T04:08:00.921Z,13.23
2023-03-10T04:10:29.433Z,13.24
2023-03-10T04:12:57.074Z,13.25
2023-03-10T04:15:25.099Z,13.26
2023-03-10T04:17:52.116Z,13.28
2023-03-10T04:20:19.128Z,13.28
2023-03-10T04:22:49.388Z,13.30
2023-03-10T04:25:17.321Z,13.32
2023-03-10T04:27:45.118Z,13.35
2023-03-10T04:30:14.162Z,13.36
2023-03-10T04:32:47.206Z,13.38
2023-03-10T04:35:15.960Z,13.38
2023-03-10T04:37:44.706Z,13.37
2023-03-10T04:40:13.644Z,13.35
2023-03-10T04:42:41.649Z,13.34
2023-03-10T04:45:09.722Z,13.31
2023-03-10T04:47:36.719Z,13.29
2023-03-10T04:50:05.557Z,13.29
2023-03-10T04:52:32.489Z,13.28
2023-03-10T04:54:59.512Z,13.29
2023-03-10T04:57:26.347Z,13.27
2023-03-10T04:59:54.172Z,13.27
2023-03-10T05:02:23.389Z,13.25
2023-03-10T05:04:50.892Z,13.24
2023-03-10T05:07:17.909Z,13.22
2023-03-10T05:09:48.184Z,13.19
2023-03-10T05:12:15.244Z,13.17
2023-03-10T05:14:42.080Z,13.15
2023-03-10T05:17:09.391Z,13.13
2023-03-10T05:19:37.097Z,13.12
2023-03-10T05:22:05.919Z,13.08
2023-03-10T05:24:34.754Z,13.05
2023-03-10T05:27:04.269Z,13.03
2023-03-10T05:29:31.733Z,13.01
2023-03-10T05:32:08.446Z,12.99
2023-03-10T05:34:38.850Z,12.96
2023-03-10T05:37:06.061Z,12.91
2023-03-10T05:39:33.618Z,12.87
2023-03-10T05:42:04.173Z,12.82
2023-03-10T05:44:33.653Z,12.74
2023-03-10T05:47:02.586Z,12.68
2023-03-10T05:49:30.776Z,12.64
2023-03-10T05:51:58.505Z,12.62
2023-03-10T05:54:25.631Z,12.62
2023-03-10T05:56:52.403Z,12.64
2023-03-10T05:59:22.058Z,12.65
2023-03-10T06:01:50.126Z,12.67
2023-03-10T06:04:17.053Z,12.69
2023-03-10T06:06:43.981Z,12.69
2023-03-10T06:09:10.828Z,12.72
2023-03-10T06:11:37.709Z,12.74
2023-03-10T06:14:04.608Z,12.75
2023-03-10T06:16:31.516Z,12.77
2023-03-10T06:18:58.603Z,12.77
2023-03-10T06:21:26.070Z,12.76
2023-03-10T06:23:52.888Z,12.72
2023-03-10T06:26:19.918Z,12.71
2023-03-10T06:28:46.999Z,12.69
2023-03-10T06:31:21.229Z,12.68
2023-03-10T06:33:48.572Z,12.72
2023-03-10T06:36:16.789Z,12.74
2023-03-10T06:38:43.790Z,12.77
2023-03-10T06:41:11.404Z,12.82
2023-03-10T06:43:38.678Z,12.86
2023-03-10T06:46:09.185Z,12.88
2023-03-10T06:48:37.237Z,12.93
2023-03-10T06:51:14.351Z,12.95
2023-03-10T06:53:41.397Z,13.01
2023-03-10T06:56:16.893Z,12.99
2023-03-10T06:58:45.204Z,13.05
2023-03-10T07:01:29.533Z,12.99
2023-03-10T07:03:57.436Z,13.04
2023-03-10T07:06:25.849Z,13.04
2023-03-10T07:08:54.212Z,13.04
2023-03-10T07:11:22.756Z,13.02
2023-03-10T07:13:49.825Z,13.02
2023-03-10T07:16:17.407Z,13.02
2023-03-10T07:18:44.962Z,13.00
2023-03-10T07:21:16.254Z,12.97
2023-03-10T07:23:43.137Z,12.97
2023-03-10T07:26:10.646Z,12.96
2023-03-10T07:28:38.213Z,12.97
2023-03-10T07:31:08.044Z,12.97
2023-03-10T07:33:35.631Z,13.01
2023-03-10T07:36:12.911Z,12.99
2023-03-10T07:38:40.044Z,13.05
2023-03-10T07:41:19.440Z,13.02
2023-03-10T07:43:46.264Z,13.09
2023-03-10T07:46:15.154Z,13.09
2023-03-10T07:48:43.112Z,13.08
2023-03-10T07:51:12.373Z,13.05
2023-03-10T07:53:39.282Z,13.03
2023-03-10T07:56:08.462Z,13.02
2023-03-10T07:58:35.909Z,13.04
2023-03-10T08:01:03.720Z,13.05
2023-03-10T08:03:30.749Z,13.09
2023-03-10T08:05:59.574Z,13.09
2023-03-10T08:08:27.186Z,13.08
2023-03-10T08:11:10.433Z,13.01
2023-03-10T08:13:38.134Z,13.03
2023-03-10T08:16:05.687Z,13.04
2023-03-10T08:18:33.231Z,13.02
2023-03-10T08:21:03.860Z,13.03
2023-03-10T08:23:31.532Z,13.08
2023-03-10T08:26:02.480Z,13.10
2023-03-10T08:28:30.603Z,13.15
2023-03-10T08:31:04.945Z,13.16
2023-03-10T08:33:32.560Z,13.21
2023-03-10T08:36:08.609Z,13.22
2023-03-10T08:38:36.592Z,13.29
2023-03-10T08:41:22.625Z,13.35
2023-03-10T08:43:51.621Z,13.48
2023-03-10T08:46:21.784Z,13.55
2023-03-10T08:48:49.090Z,13.68
2023-03-10T08:51:16.751Z,13.80
2023-03-10T08:53:47.175Z,13.89
2023-03-10T08:56:15.453Z,13.99
2023-03-10T08:58:42.623Z,14.09
2023-03-10T09:01:09.868Z,14.16
2023-03-10T09:03:39.634Z,14.23
2023-03-10T09:06:07.029Z,14.33
2023-03-10T09:08:34.713Z,14.42
2023-03-10T09:11:03.042Z,14.49
2023-03-10T09:13:29.901Z,14.56
2023-03-10T09:15:56.723Z,14.59
2023-03-10T09:18:23.534Z,14.61
2023-03-10T09:20:50.573Z,14.65
2023-03-10T09:23:17.701Z,14.66
2023-03-10T09:25:44.569Z,14.67
2023-03-10T09:28:11.918Z,14.67
2023-03-10T09:30:41.257Z,14.64
2023-03-10T09:33:16.352Z,14.60
2023-03-10T09:35:48.385Z,14.63
2023-03-10T09:38:25.397Z,14.62
2023-03-10T09:41:38.410Z,14.59
2023-03-10T09:44:26.040Z,14.60
2023-03-10T09:47:52.065Z,14.55
2023-03-10T09:50:59.652Z,14.55
2023-03-10T09:54:07.784Z,14.57
2023-03-10T09:56:41.551Z,14.59
2023-03-10T09:59:26.522Z,14.58
2023-03-10T10:01:55.103Z,14.61
2023-03-10T10:08:54.917Z,14.48
2023-03-10T10:11:55.843Z,14.47
2023-03-10T10:18:21.476Z,14.37
2023-03-10T10:21:24.052Z,14.36
2023-03-10T10:24:18.495Z,14.36
2023-03-10T10:27:08.232Z,14.36
2023-03-10T10:32:45.495Z,14.37
2023-03-10T10:35:46.102Z,14.36
2023-03-10T10:38:59.758Z,14.38
2023-03-10T10:42:05.344Z,14.44
2023-03-10T10:45:24.783Z,14.47
2023-03-10T10:48:12.655Z,14.55
2023-03-10T10:51:07.690Z,14.57
2023-03-10T10:54:56.124Z,14.61
2023-03-10T11:04:28.800Z,14.82
2023-03-10T11:10:43.338Z,14.96
2023-03-10T11:13:43.430Z,15.02
2023-03-10T11:16:57.883Z,15.09
2023-03-10T11:20:59.601Z,15.11
2023-03-10T11:24:29.931Z,15.11
2023-03-10T11:28:06.714Z,15.10
2023-03-10T11:31:21.571Z,15.08
2023-03-10T11:34:48.429Z,15.08
2023-03-10T11:38:03.057Z,15.08
2023-03-10T11:41:17.349Z,15.08
2023-03-10T11:44:50.301Z,15.04
2023-03-10T12:31:47.407Z,15.68
2023-03-10T12:34:54.901Z,15.78
2023-03-10T12:37:56.990Z,15.84
2023-03-10T12:41:04.552Z,15.85
2023-03-10T12:44:35.076Z,15.81
2023-03-10T12:48:36.056Z,15.77
2023-03-10T12:51:39.512Z,15.75
2023-03-10T12:55:25.176Z,15.66
2023-03-10T12:58:35.663Z,15.58
2023-03-10T13:01:43.257Z,15.55
2023-03-10T13:04:50.067Z,15.51
2023-03-10T13:13:50.504Z,15.27
2023-03-10T13:19:30.668Z,15.09
2023-03-10T13:22:19.573Z,14.98
2023-03-10T13:25:15.677Z,14.83
2023-03-10T13:28:08.960Z,14.77
2023-03-10T13:33:54.044Z,14.60
2023-03-10T13:36:44.238Z,14.52
2023-03-10T13:39:54.880Z,14.54
2023-03-10T13:48:53.426Z,14.64
2023-03-10T13:51:42.889Z,14.64
2023-03-10T13:57:41.949Z,14.66
2023-03-10T14:00:57.457Z,14.59
2023-03-10T14:03:40.767Z,14.53
2023-03-10T14:06:30.208Z,14.40
2023-03-10T14:10:01.902Z,14.21
2023-03-10T14:12:50.377Z,14.03
2023-03-10T14:15:22.381Z,13.89
2023-03-10T14:18:07.099Z,13.68
2023-03-10T14:20:39.137Z,13.59
2023-03-10T14:23:23.382Z,13.42
2023-03-10T14:25:53.402Z,13.36
2023-03-10T14:28:28.510Z,13.20
2023-03-10T14:30:55.594Z,13.23
2023-03-10T14:33:22.747Z,13.18
2023-03-10T14:35:52.745Z,13.16
2023-03-10T14:38:19.790Z,13.14
2023-03-10T14:40:50.160Z,13.09
2023-03-10T14:43:36.262Z,12.99
2023-03-10T14:46:05.129Z,12.98
2023-03-10T14:48:36.337Z,12.91
2023-03-10T14:51:03.226Z,12.86
2023-03-10T14:53:31.746Z,12.78
2023-03-10T14:56:01.946Z,12.66
2023-03-10T14:58:33.585Z,12.59
2023-03-10T15:01:01.195Z,12.50
2023-03-10T15:03:28.233Z,12.41
2023-03-10T15:05:55.075Z,12.28
2023-03-10T15:08:21.932Z,12.14
2023-03-10T15:10:51.061Z,11.97
2023-03-10T15:13:24.172Z,11.81
2023-03-10T15:15:51.714Z,11.66
2023-03-10T15:18:24.299Z,11.47
2023-03-10T15:20:51.161Z,11.31
2023-03-10T15:23:20.026Z,11.16
2023-03-10T15:25:47.300Z,11.03
2023-03-10T15:28:14.423Z,10.92
2023-03-10T15:30:41.292Z,10.83
2023-03-10T15:33:08.138Z,10.72
2023-03-10T15:35:35.143Z,10.60
2023-03-10T15:38:02.585Z,10.50
2023-03-10T15:40:32.304Z,10.42
2023-03-10T15:42:59.927Z,10.37
2023-03-10T15:45:29.646Z,10.34
2023-03-10T15:47:57.142Z,10.36
2023-03-10T15:50:24.365Z,10.41
2023-03-10T15:52:56.898Z,10.47
2023-03-10T15:55:25.279Z,10.54
2023-03-10T15:57:52.988Z,10.71
2023-03-10T16:00:22.833Z,11.05
2023-03-10T16:02:50.657Z,11.36
2023-03-10T16:05:18.157Z,11.47
2023-03-10T16:07:45.108Z,11.52
2023-03-10T16:10:15.290Z,11.48
2023-03-10T16:12:42.087Z,11.45
2023-03-10T16:15:10.073Z,11.37
2023-03-10T16:17:36.900Z,11.31
2023-03-10T16:20:10.295Z,11.25
2023-03-10T16:22:40.477Z,11.19
2023-03-10T16:25:11.836Z,11.12
2023-03-10T16:27:39.962Z,11.03
2023-03-10T16:30:09.021Z,10.91
2023-03-10T16:32:35.950Z,10.80
2023-03-10T16:35:02.819Z,10.67
2023-03-10T16:37:29.973Z,10.56
2023-03-10T16:39:57.721Z,10.48
2023-03-10T16:42:26.366Z,10.42
2023-03-10T16:44:56.846Z,10.32
2023-03-10T16:47:23.878Z,10.29
2023-03-10T16:49:50.708Z,10.25
2023-03-10T16:52:17.521Z,10.22
2023-03-10T16:54:46.438Z,10.21
2023-03-10T16:57:14.951Z,10.18
2023-03-10T16:59:44.586Z,10.17
2023-03-10T17:02:17.544Z,10.15
2023-03-10T17:04:45.368Z,10.17
2023-03-10T17:07:12.511Z,10.17
2023-03-10T17:09:39.437Z,10.18
2023-03-10T17:12:06.964Z,10.19
2023-03-10T17:14:33.870Z,10.18
2023-03-10T17:17:01.413Z,10.17
2023-03-10T17:19:30.996Z,10.13
2023-03-10T17:21:58.560Z,10.10
2023-03-10T17:24:25.978Z,10.07
2023-03-10T17:26:53.337Z,10.04
2023-03-10T17:29:20.269Z,10.02
2023-03-10T17:31:51.345Z,10.01
2023-03-10T17:34:19.277Z,10.00
2023-03-10T17:36:50.295Z,10.01
2023-03-10T17:39:22.983Z,9.98
2023-03-10T17:41:49.867Z,10.00
2023-03-10T17:44:17.009Z,10.00
2023-03-10T17:46:43.824Z,9.98
2023-03-10T17:49:14.982Z,9.83
2023-03-10T17:51:44.670Z,9.69
2023-03-10T17:54:15.572Z,9.57
2023-03-10T17:56:42.467Z,9.48
2023-03-10T17:59:14.010Z,9.37
2023-03-10T18:01:43.523Z,9.31
2023-03-10T18:04:10.997Z,9.25
2023-03-10T18:06:37.884Z,9.21
2023-03-10T18:09:08.786Z,9.16
2023-03-10T18:11:35.626Z,9.15
2023-03-10T18:14:03.884Z,9.13
2023-03-10T18:16:34.792Z,9.06
2023-03-10T18:19:02.062Z,9.01
2023-03-10T18:21:28.904Z,8.93
2023-03-10T18:23:56.235Z,8.88
2023-03-10T18:26:27.606Z,8.80
2023-03-10T18:28:54.524Z,8.74
2023-03-10T18:31:25.349Z,8.65
2023-03-10T18:33:52.538Z,8.58
2023-03-10T18:36:21.118Z,8.45
2023-03-10T18:38:48.510Z,8.32
2023-03-10T18:41:19.847Z,8.19
2023-03-10T18:43:47.075Z,8.11
2023-03-10T18:46:14.081Z,8.04
2023-03-10T18:48:40.956Z,7.97
2023-03-10T18:51:08.376Z,7.91
2023-03-10T18:53:35.265Z,7.86
2023-03-10T18:56:02.126Z,7.84
2023-03-10T18:58:29.795Z,7.85
2023-03-10T19:00:58.042Z,7.86
2023-03-10T19:03:28.165Z,7.90
2023-03-10T19:05:55.149Z,7.96
2023-03-10T19:08:25.587Z,8.03
2023-03-10T19:11:00.241Z,8.06
2023-03-10T19:13:29.784Z,8.14
2023-03-10T19:15:57.168Z,8.16
2023-03-10T19:18:25.076Z,8.16
2023-03-10T19:20:58.664Z,8.15
2023-03-10T19:23:26.358Z,8.20
2023-03-10T19:25:53.770Z,8.21
2023-03-10T19:28:20.760Z,8.22
2023-03-10T19:30:47.852Z,8.22
2023-03-10T19:33:14.677Z,8.25
2023-03-10T19:35:42.559Z,8.25
2023-03-10T19:38:09.413Z,8.25
2023-03-10T19:40:36.835Z,8.25
2023-03-10T19:43:03.935Z,8.25
2023-03-10T19:45:30.965Z,8.23
2023-03-10T19:47:58.653Z,8.23
2023-03-10T19:50:26.126Z,8.21
2023-03-10T19:52:53.118Z,8.22
2023-03-10T19:55:23.884Z,8.20
2023-03-10T19:57:53.468Z,8.20
2023-03-10T20:00:30.668Z,8.14
2023-03-10T20:02:58.322Z,8.08
2023-03-10T20:05:26.724Z,8.02
2023-03-10T20:07:53.636Z,7.97
2023-03-10T20:10:20.638Z,7.94
2023-03-10T20:12:48.463Z,7.92
2023-03-10T20:15:16.993Z,7.87
2023-03-10T20:17:43.968Z,7.86
2023-03-10T20:20:15.040Z,7.80
2023-03-10T20:22:43.889Z,7.69
2023-03-10T20:25:15.237Z,7.69
2023-03-10T20:27:42.390Z,7.68
2023-03-10T20:30:18.016Z,7.62
2023-03-10T20:32:45.273Z,7.59
2023-03-10T20:35:14.187Z,7.49
2023-03-10T20:37:41.957Z,7.35
2023-03-10T20:40:13.254Z,7.14
2023-03-10T20:42:40.267Z,6.93
2023-03-10T20:45:10.763Z,6.71
2023-03-10T20:47:38.213Z,6.53
2023-03-10T20:50:09.696Z,6.39
2023-03-10T20:52:39.704Z,6.29
2023-03-10T20:55:08.322Z,6.23
2023-03-10T20:57:35.219Z,6.20
2023-03-10T21:00:02.686Z,6.20
2023-03-10T21:02:29.523Z,6.21
2023-03-10T21:04:56.348Z,6.22
2023-03-10T21:07:23.205Z,6.23
2023-03-10T21:09:50.246Z,6.25
2023-03-10T21:12:18.576Z,6.28
2023-03-10T21:14:46.164Z,6.30
2023-03-10T21:17:13.041Z,6.30
2023-03-10T21:19:39.942Z,6.33
2023-03-10T21:22:06.947Z,6.36
2023-03-10T21:24:34.162Z,6.37
2023-03-10T21:27:01.123Z,6.39
2023-03-10T21:29:27.991Z,6.43
2023-03-10T21:31:54.849Z,6.45
2023-03-10T21:34:21.731Z,6.48
2023-03-10T21:36:48.645Z,6.52
2023-03-10T21:39:15.510Z,6.57
2023-03-10T21:41:42.411Z,6.61
2023-03-10T21:44:10.520Z,6.65
2023-03-10T21:46:37.428Z,6.71
2023-03-10T21:49:04.464Z,6.75
2023-03-10T21:51:33.868Z,6.78
2023-03-10T21:54:01.476Z,6.80
2023-03-10T21:56:28.901Z,6.85
2023-03-10T21:58:56.723Z,6.85
2023-03-10T22:01:25.865Z,6.87
2023-03-10T22:03:53.458Z,6.89
2023-03-10T22:06:20.631Z,6.89
2023-03-10T22:08:47.576Z,6.88
2023-03-10T22:11:14.858Z,6.85
2023-03-10T22:13:42.427Z,6.79
2023-03-10T22:16:16.461Z,6.73
2023-03-10T22:18:44.513Z,6.70
2023-03-10T22:21:11.777Z,6.69
2023-03-10T22:23:38.579Z,6.68
2023-03-10T22:26:05.428Z,6.66
2023-03-10T22:28:32.800Z,6.62
2023-03-10T22:30:59.676Z,6.61
2023-03-10T22:33:26.506Z,6.58
2023-03-10T22:35:53.340Z,6.57
2023-03-10T22:38:20.483Z,6.56
2023-03-10T22:40:48.276Z,6.55
2023-03-10T22:43:15.351Z,6.56
2023-03-10T22:45:42.358Z,6.53
2023-03-10T22:48:09.395Z,6.51
2023-03-10T22:50:40.847Z,6.48
2023-03-10T22:53:14.402Z,6.46
2023-03-10T22:55:43.431Z,6.47
2023-03-10T22:58:11.100Z,6.45
2023-03-10T23:00:39.668Z,6.45
2023-03-10T23:03:07.461Z,6.45
2023-03-10T23:05:34.353Z,6.46
2023-03-10T23:08:01.178Z,6.49
2023-03-10T23:10:33.735Z,6.47
2023-03-10T23:13:04.600Z,6.49
2023-03-10T23:15:35.650Z,6.48
2023-03-10T23:18:02.564Z,6.51
2023-03-10T23:20:36.260Z,6.50
2023-03-10T23:23:05.910Z,6.45
2023-03-10T23:25:39.261Z,6.42
2023-03-10T23:28:08.600Z,6.41
2023-03-10T23:30:38.474Z,6.38
2023-03-10T23:33:07.277Z,6.35
2023-03-10T23:35:35.527Z,6.33
2023-03-10T23:38:04.676Z,6.29
2023-03-10T23:40:33.699Z,6.26
2023-03-10T23:43:02.725Z,6.20
2023-03-10T23:45:32.130Z,6.16
2023-03-10T23:48:01.379Z,6.12
2023-03-10T23:50:34.010Z,6.08
2023-03-10T23:53:02.070Z,6.06
2023-03-10T23:55:34.112Z,6.04
2023-03-10T23:58:01.914Z,6.03
